sensor_id;sensor_type;location;lat;lon;timestamp;P1;durP1;ratioP1;P2;durP2;ratioP2
49738;SDS011;53662;50.114;8.626;2024-02-21T00:01:56;17.95;;;4.43;;
49738;SDS011;53662;50.114;8.626;2024-02-21T00:04:22;14.57;;;4.07;;
49738;SDS011;53662;50.114;8.626;2024-02-21T00:06:47;16.98;;;4.25;;
49738;SDS011;53662;50.114;8.626;2024-02-21T00:09:13;12.48;;;3.83;;
49738;SDS011;53662;50.114;8.626;2024-02-21T00:11:39;18.13;;;4.90;;
49738;SDS011;53662;50.114;8.626;2024-02-21T00:14:05;18.20;;;4.85;;
49738;SDS011;53662;50.114;8.626;2024-02-21T00:16:31;13.77;;;4.38;;
49738;SDS011;53662;50.114;8.626;2024-02-21T00:18:57;14.43;;;4.65;;
49738;SDS011;53662;50.114;8.626;2024-02-21T00:21:24;17.50;;;4.07;;
49738;SDS011;53662;50.114;8.626;2024-02-21T00:23:50;16.35;;;4.45;;
49738;SDS011;53662;50.114;8.626;2024-02-21T00:26:16;10.35;;;4.13;;
49738;SDS011;53662;50.114;8.626;2024-02-21T00:28:42;19.05;;;5.05;;
49738;SDS011;53662;50.114;8.626;2024-02-21T00:31:08;15.63;;;4.93;;
49738;SDS011;53662;50.114;8.626;2024-02-21T00:33:34;22.25;;;4.82;;
49738;SDS011;53662;50.114;8.626;2024-02-21T00:35:59;19.13;;;4.60;;
49738;SDS011;53662;50.114;8.626;2024-02-21T00:38:25;15.25;;;4.70;;
49738;SDS011;53662;50.114;8.626;2024-02-21T00:40:51;17.77;;;5.47;;
49738;SDS011;53662;50.114;8.626;2024-02-21T00:43:17;15.23;;;4.32;;
49738;SDS011;53662;50.114;8.626;2024-02-21T00:45:43;16.15;;;4.60;;
49738;SDS011;53662;50.114;8.626;2024-02-21T00:48:09;18.38;;;5.15;;
49738;SDS011;53662;50.114;8.626;2024-02-21T00:50:35;23.50;;;5.65;;
49738;SDS011;53662;50.114;8.626;2024-02-21T00:53:02;16.65;;;5.65;;
49738;SDS011;53662;50.114;8.626;2024-02-21T00:55:28;17.40;;;5.43;;
49738;SDS011;53662;50.114;8.626;2024-02-21T00:57:54;21.38;;;6.32;;
49738;SDS011;53662;50.114;8.626;2024-02-21T01:00:20;17.90;;;6.10;;
49738;SDS011;53662;50.114;8.626;2024-02-21T01:02:46;20.50;;;6.25;;
49738;SDS011;53662;50.114;8.626;2024-02-21T01:05:12;17.67;;;6.45;;
49738;SDS011;53662;50.114;8.626;2024-02-21T01:07:38;25.27;;;6.05;;
49738;SDS011;53662;50.114;8.626;2024-02-21T01:10:05;18.33;;;5.75;;
49738;SDS011;53662;50.114;8.626;2024-02-21T01:12:31;19.75;;;5.85;;
49738;SDS011;53662;50.114;8.626;2024-02-21T01:14:57;13.25;;;6.03;;
49738;SDS011;53662;50.114;8.626;2024-02-21T01:17:22;19.63;;;5.50;;
49738;SDS011;53662;50.114;8.626;2024-02-21T01:19:48;25.05;;;6.00;;
49738;SDS011;53662;50.114;8.626;2024-02-21T01:22:14;17.67;;;5.80;;
49738;SDS011;53662;50.114;8.626;2024-02-21T01:24:41;17.80;;;5.82;;
49738;SDS011;53662;50.114;8.626;2024-02-21T01:27:07;12.85;;;5.70;;
49738;SDS011;53662;50.114;8.626;2024-02-21T01:29:33;26.35;;;6.30;;
49738;SDS011;53662;50.114;8.626;2024-02-21T01:31:59;22.83;;;5.78;;
49738;SDS011;53662;50.114;8.626;2024-02-21T01:34:25;20.98;;;5.38;;
49738;SDS011;53662;50.114;8.626;2024-02-21T01:36:51;11.32;;;4.63;;
49738;SDS011;53662;50.114;8.626;2024-02-21T01:39:17;19.92;;;5.72;;
49738;SDS011;53662;50.114;8.626;2024-02-21T01:41:43;15.13;;;5.22;;
49738;SDS011;53662;50.114;8.626;2024-02-21T01:44:09;18.88;;;5.57;;
49738;SDS011;53662;50.114;8.626;2024-02-21T01:46:35;16.45;;;4.88;;
49738;SDS011;53662;50.114;8.626;2024-02-21T01:49:01;16.35;;;6.15;;
49738;SDS011;53662;50.114;8.626;2024-02-21T01:51:27;12.73;;;5.07;;
49738;SDS011;53662;50.114;8.626;2024-02-21T01:53:53;18.10;;;6.00;;
49738;SDS011;53662;50.114;8.626;2024-02-21T01:56:21;14.48;;;5.40;;
49738;SDS011;53662;50.114;8.626;2024-02-21T01:58:48;16.02;;;5.03;;
49738;SDS011;53662;50.114;8.626;2024-02-21T02:01:14;13.13;;;5.00;;
49738;SDS011;53662;50.114;8.626;2024-02-21T02:03:40;19.40;;;5.75;;
49738;SDS011;53662;50.114;8.626;2024-02-21T02:06:06;13.15;;;5.72;;
49738;SDS011;53662;50.114;8.626;2024-02-21T02:08:32;14.80;;;5.88;;
49738;SDS011;53662;50.114;8.626;2024-02-21T02:10:58;15.68;;;5.50;;
49738;SDS011;53662;50.114;8.626;2024-02-21T02:13:24;17.73;;;5.47;;
49738;SDS011;53662;50.114;8.626;2024-02-21T02:15:50;17.75;;;5.40;;
49738;SDS011;53662;50.114;8.626;2024-02-21T02:18:17;17.02;;;5.53;;
49738;SDS011;53662;50.114;8.626;2024-02-21T02:20:43;18.00;;;5.43;;
49738;SDS011;53662;50.114;8.626;2024-02-21T02:23:11;13.88;;;5.43;;
49738;SDS011;53662;50.114;8.626;2024-02-21T02:25:37;15.95;;;5.78;;
49738;SDS011;53662;50.114;8.626;2024-02-21T02:28:04;17.23;;;5.13;;
49738;SDS011;53662;50.114;8.626;2024-02-21T02:30:33;15.70;;;5.57;;
49738;SDS011;53662;50.114;8.626;2024-02-21T02:33:00;20.92;;;6.07;;
49738;SDS011;53662;50.114;8.626;2024-02-21T02:35:26;9.15;;;5.35;;
49738;SDS011;53662;50.114;8.626;2024-02-21T02:37:52;12.52;;;5.18;;
49738;SDS011;53662;50.114;8.626;2024-02-21T02:40:18;13.35;;;5.07;;
49738;SDS011;53662;50.114;8.626;2024-02-21T02:42:44;15.60;;;4.97;;
49738;SDS011;53662;50.114;8.626;2024-02-21T02:45:10;9.50;;;4.60;;
49738;SDS011;53662;50.114;8.626;2024-02-21T02:47:36;9.52;;;4.03;;
49738;SDS011;53662;50.114;8.626;2024-02-21T02:50:02;11.88;;;4.70;;
49738;SDS011;53662;50.114;8.626;2024-02-21T02:52:29;14.85;;;4.78;;
49738;SDS011;53662;50.114;8.626;2024-02-21T02:54:54;11.43;;;4.07;;
49738;SDS011;53662;50.114;8.626;2024-02-21T02:57:21;12.77;;;4.82;;
49738;SDS011;53662;50.114;8.626;2024-02-21T02:59:50;20.63;;;5.63;;
49738;SDS011;53662;50.114;8.626;2024-02-21T03:02:16;17.70;;;4.80;;
49738;SDS011;53662;50.114;8.626;2024-02-21T03:04:42;17.40;;;4.60;;
49738;SDS011;53662;50.114;8.626;2024-02-21T03:07:08;14.85;;;4.75;;
49738;SDS011;53662;50.114;8.626;2024-02-21T03:09:36;13.30;;;4.50;;
49738;SDS011;53662;50.114;8.626;2024-02-21T03:12:02;14.63;;;5.03;;
49738;SDS011;53662;50.114;8.626;2024-02-21T03:14:28;14.07;;;5.00;;
49738;SDS011;53662;50.114;8.626;2024-02-21T03:16:54;16.42;;;4.72;;
49738;SDS011;53662;50.114;8.626;2024-02-21T03:19:20;20.35;;;5.15;;
49738;SDS011;53662;50.114;8.626;2024-02-21T03:21:46;15.70;;;4.95;;
49738;SDS011;53662;50.114;8.626;2024-02-21T03:24:12;13.38;;;4.70;;
49738;SDS011;53662;50.114;8.626;2024-02-21T03:26:38;20.98;;;5.55;;
49738;SDS011;53662;50.114;8.626;2024-02-21T03:29:05;10.40;;;4.90;;
49738;SDS011;53662;50.114;8.626;2024-02-21T03:31:31;16.75;;;5.03;;
49738;SDS011;53662;50.114;8.626;2024-02-21T03:33:57;14.35;;;5.22;;
49738;SDS011;53662;50.114;8.626;2024-02-21T03:36:23;14.88;;;5.25;;
49738;SDS011;53662;50.114;8.626;2024-02-21T03:38:49;13.80;;;5.25;;
49738;SDS011;53662;50.114;8.626;2024-02-21T03:41:15;13.48;;;5.63;;
49738;SDS011;53662;50.114;8.626;2024-02-21T03:43:40;10.70;;;4.88;;
49738;SDS011;53662;50.114;8.626;2024-02-21T03:46:06;17.73;;;5.53;;
49738;SDS011;53662;50.114;8.626;2024-02-21T03:48:32;18.88;;;5.05;;
49738;SDS011;53662;50.114;8.626;2024-02-21T03:50:58;16.17;;;5.18;;
49738;SDS011;53662;50.114;8.626;2024-02-21T03:53:24;17.35;;;5.55;;
49738;SDS011;53662;50.114;8.626;2024-02-21T03:55:50;17.70;;;6.45;;
49738;SDS011;53662;50.114;8.626;2024-02-21T03:58:16;19.48;;;6.22;;
49738;SDS011;53662;50.114;8.626;2024-02-21T04:00:42;16.42;;;6.35;;
49738;SDS011;53662;50.114;8.626;2024-02-21T04:03:08;21.15;;;6.57;;
49738;SDS011;53662;50.114;8.626;2024-02-21T04:05:34;17.83;;;6.90;;
49738;SDS011;53662;50.114;8.626;2024-02-21T04:08:00;19.50;;;6.88;;
49738;SDS011;53662;50.114;8.626;2024-02-21T04:10:28;17.13;;;6.55;;
49738;SDS011;53662;50.114;8.626;2024-02-21T04:12:54;13.60;;;7.00;;
49738;SDS011;53662;50.114;8.626;2024-02-21T04:15:20;17.25;;;7.85;;
49738;SDS011;53662;50.114;8.626;2024-02-21T04:17:46;14.65;;;7.07;;
49738;SDS011;53662;50.114;8.626;2024-02-21T04:20:14;15.82;;;6.82;;
49738;SDS011;53662;50.114;8.626;2024-02-21T04:22:40;13.88;;;6.90;;
49738;SDS011;53662;50.114;8.626;2024-02-21T04:25:06;17.13;;;6.68;;
49738;SDS011;53662;50.114;8.626;2024-02-21T04:27:32;15.70;;;6.78;;
49738;SDS011;53662;50.114;8.626;2024-02-21T04:29:58;17.48;;;6.70;;
49738;SDS011;53662;50.114;8.626;2024-02-21T04:32:24;15.68;;;7.38;;
49738;SDS011;53662;50.114;8.626;2024-02-21T04:34:52;14.55;;;6.53;;
49738;SDS011;53662;50.114;8.626;2024-02-21T04:37:18;13.82;;;6.80;;
49738;SDS011;53662;50.114;8.626;2024-02-21T04:39:44;18.50;;;7.25;;
49738;SDS011;53662;50.114;8.626;2024-02-21T04:42:10;20.17;;;7.32;;
49738;SDS011;53662;50.114;8.626;2024-02-21T04:44:36;16.88;;;6.40;;
49738;SDS011;53662;50.114;8.626;2024-02-21T04:47:02;15.02;;;7.07;;
49738;SDS011;53662;50.114;8.626;2024-02-21T04:49:29;18.83;;;7.30;;
49738;SDS011;53662;50.114;8.626;2024-02-21T04:51:55;14.00;;;6.50;;
49738;SDS011;53662;50.114;8.626;2024-02-21T04:54:21;18.67;;;6.90;;
49738;SDS011;53662;50.114;8.626;2024-02-21T04:56:46;22.73;;;7.05;;
49738;SDS011;53662;50.114;8.626;2024-02-21T04:59:12;18.17;;;6.78;;
49738;SDS011;53662;50.114;8.626;2024-02-21T05:01:38;20.63;;;6.60;;
49738;SDS011;53662;50.114;8.626;2024-02-21T05:04:04;16.02;;;6.32;;
49738;SDS011;53662;50.114;8.626;2024-02-21T05:06:31;16.92;;;6.00;;
49738;SDS011;53662;50.114;8.626;2024-02-21T05:08:57;13.80;;;5.53;;
49738;SDS011;53662;50.114;8.626;2024-02-21T05:11:23;19.45;;;5.43;;
49738;SDS011;53662;50.114;8.626;2024-02-21T05:13:49;9.50;;;4.90;;
49738;SDS011;53662;50.114;8.626;2024-02-21T05:16:15;14.05;;;5.20;;
49738;SDS011;53662;50.114;8.626;2024-02-21T05:18:41;17.20;;;4.93;;
49738;SDS011;53662;50.114;8.626;2024-02-21T05:21:08;11.45;;;5.68;;
49738;SDS011;53662;50.114;8.626;2024-02-21T05:23:34;13.15;;;5.28;;
49738;SDS011;53662;50.114;8.626;2024-02-21T05:26:00;14.95;;;5.60;;
49738;SDS011;53662;50.114;8.626;2024-02-21T05:28:26;11.57;;;5.05;;
49738;SDS011;53662;50.114;8.626;2024-02-21T05:30:52;22.02;;;9.43;;
49738;SDS011;53662;50.114;8.626;2024-02-21T05:33:18;13.63;;;5.00;;
49738;SDS011;53662;50.114;8.626;2024-02-21T05:35:46;15.02;;;5.57;;
49738;SDS011;53662;50.114;8.626;2024-02-21T05:38:13;11.63;;;6.13;;
49738;SDS011;53662;50.114;8.626;2024-02-21T05:40:39;11.82;;;5.35;;
49738;SDS011;53662;50.114;8.626;2024-02-21T05:43:06;19.30;;;5.93;;
49738;SDS011;53662;50.114;8.626;2024-02-21T05:45:32;14.07;;;5.25;;
49738;SDS011;53662;50.114;8.626;2024-02-21T05:47:58;15.65;;;5.55;;
49738;SDS011;53662;50.114;8.626;2024-02-21T05:50:24;20.67;;;5.60;;
49738;SDS011;53662;50.114;8.626;2024-02-21T05:52:51;16.38;;;5.32;;
49738;SDS011;53662;50.114;8.626;2024-02-21T05:55:17;12.88;;;5.28;;
49738;SDS011;53662;50.114;8.626;2024-02-21T05:57:43;17.10;;;6.10;;
49738;SDS011;53662;50.114;8.626;2024-02-21T06:00:09;23.02;;;5.95;;
49738;SDS011;53662;50.114;8.626;2024-02-21T06:02:35;13.75;;;5.43;;
49738;SDS011;53662;50.114;8.626;2024-02-21T06:05:01;16.45;;;5.28;;
49738;SDS011;53662;50.114;8.626;2024-02-21T06:07:27;15.00;;;5.82;;
49738;SDS011;53662;50.114;8.626;2024-02-21T06:09:53;11.30;;;5.63;;
49738;SDS011;53662;50.114;8.626;2024-02-21T06:12:19;14.30;;;6.43;;
49738;SDS011;53662;50.114;8.626;2024-02-21T06:14:45;17.55;;;6.57;;
49738;SDS011;53662;50.114;8.626;2024-02-21T06:17:11;12.65;;;6.32;;
49738;SDS011;53662;50.114;8.626;2024-02-21T06:19:39;16.00;;;7.15;;
49738;SDS011;53662;50.114;8.626;2024-02-21T06:22:06;17.98;;;6.68;;
49738;SDS011;53662;50.114;8.626;2024-02-21T06:24:33;20.13;;;6.20;;
49738;SDS011;53662;50.114;8.626;2024-02-21T06:26:59;18.10;;;5.97;;
49738;SDS011;53662;50.114;8.626;2024-02-21T06:29:25;19.27;;;6.43;;
49738;SDS011;53662;50.114;8.626;2024-02-21T06:31:51;10.95;;;5.65;;
49738;SDS011;53662;50.114;8.626;2024-02-21T06:34:16;12.27;;;6.18;;
49738;SDS011;53662;50.114;8.626;2024-02-21T06:36:42;15.55;;;5.65;;
49738;SDS011;53662;50.114;8.626;2024-02-21T06:39:10;15.73;;;7.20;;
49738;SDS011;53662;50.114;8.626;2024-02-21T06:41:36;20.65;;;6.60;;
49738;SDS011;53662;50.114;8.626;2024-02-21T06:44:02;20.13;;;6.53;;
49738;SDS011;53662;50.114;8.626;2024-02-21T06:46:28;18.63;;;6.10;;
49738;SDS011;53662;50.114;8.626;2024-02-21T06:48:54;13.13;;;5.95;;
49738;SDS011;53662;50.114;8.626;2024-02-21T06:51:23;20.20;;;6.82;;
49738;SDS011;53662;50.114;8.626;2024-02-21T06:53:53;17.27;;;7.03;;
49738;SDS011;53662;50.114;8.626;2024-02-21T06:56:19;18.55;;;7.40;;
49738;SDS011;53662;50.114;8.626;2024-02-21T06:58:45;23.30;;;6.97;;
49738;SDS011;53662;50.114;8.626;2024-02-21T07:01:11;20.77;;;7.07;;
49738;SDS011;53662;50.114;8.626;2024-02-21T07:03:37;20.08;;;7.05;;
49738;SDS011;53662;50.114;8.626;2024-02-21T07:06:03;19.75;;;6.70;;
49738;SDS011;53662;50.114;8.626;2024-02-21T07:08:29;19.75;;;7.40;;
49738;SDS011;53662;50.114;8.626;2024-02-21T07:10:55;14.90;;;6.70;;
49738;SDS011;53662;50.114;8.626;2024-02-21T07:13:21;17.02;;;6.78;;
49738;SDS011;53662;50.114;8.626;2024-02-21T07:15:47;13.32;;;6.60;;
49738;SDS011;53662;50.114;8.626;2024-02-21T07:18:14;11.95;;;7.13;;
49738;SDS011;53662;50.114;8.626;2024-02-21T07:20:40;15.25;;;6.90;;
49738;SDS011;53662;50.114;8.626;2024-02-21T07:23:06;13.52;;;7.15;;
49738;SDS011;53662;50.114;8.626;2024-02-21T07:25:32;12.05;;;6.63;;
49738;SDS011;53662;50.114;8.626;2024-02-21T07:27:58;24.05;;;7.53;;
49738;SDS011;53662;50.114;8.626;2024-02-21T07:30:24;10.80;;;5.80;;
49738;SDS011;53662;50.114;8.626;2024-02-21T07:32:50;19.70;;;6.78;;
49738;SDS011;53662;50.114;8.626;2024-02-21T07:35:17;13.55;;;6.32;;
49738;SDS011;53662;50.114;8.626;2024-02-21T07:37:43;15.63;;;5.97;;
49738;SDS011;53662;50.114;8.626;2024-02-21T07:40:12;14.43;;;5.80;;
49738;SDS011;53662;50.114;8.626;2024-02-21T07:42:39;20.52;;;6.60;;
49738;SDS011;53662;50.114;8.626;2024-02-21T07:45:05;13.57;;;5.82;;
49738;SDS011;53662;50.114;8.626;2024-02-21T07:47:31;17.67;;;6.72;;
49738;SDS011;53662;50.114;8.626;2024-02-21T07:49:57;19.13;;;5.88;;
49738;SDS011;53662;50.114;8.626;2024-02-21T07:52:23;19.10;;;5.40;;
49738;SDS011;53662;50.114;8.626;2024-02-21T07:54:49;16.80;;;6.60;;
49738;SDS011;53662;50.114;8.626;2024-02-21T07:57:15;15.77;;;5.45;;
49738;SDS011;53662;50.114;8.626;2024-02-21T07:59:41;15.65;;;5.68;;
49738;SDS011;53662;50.114;8.626;2024-02-21T08:02:07;13.48;;;5.00;;
49738;SDS011;53662;50.114;8.626;2024-02-21T08:04:34;10.48;;;5.22;;
49738;SDS011;53662;50.114;8.626;2024-02-21T08:07:00;12.23;;;5.07;;
49738;SDS011;53662;50.114;8.626;2024-02-21T08:09:26;9.35;;;4.80;;
49738;SDS011;53662;50.114;8.626;2024-02-21T08:11:53;13.68;;;5.03;;
49738;SDS011;53662;50.114;8.626;2024-02-21T08:14:20;15.77;;;5.10;;
49738;SDS011;53662;50.114;8.626;2024-02-21T08:16:46;15.57;;;4.90;;
49738;SDS011;53662;50.114;8.626;2024-02-21T08:19:12;13.65;;;4.80;;
49738;SDS011;53662;50.114;8.626;2024-02-21T08:21:38;15.00;;;4.70;;
49738;SDS011;53662;50.114;8.626;2024-02-21T08:24:04;11.75;;;4.25;;
49738;SDS011;53662;50.114;8.626;2024-02-21T08:26:30;7.47;;;4.20;;
49738;SDS011;53662;50.114;8.626;2024-02-21T08:28:59;9.57;;;4.50;;
49738;SDS011;53662;50.114;8.626;2024-02-21T08:31:26;13.20;;;4.70;;
49738;SDS011;53662;50.114;8.626;2024-02-21T08:33:59;16.90;;;4.40;;
49738;SDS011;53662;50.114;8.626;2024-02-21T08:36:30;18.13;;;4.95;;
49738;SDS011;53662;50.114;8.626;2024-02-21T08:38:57;6.85;;;3.83;;
49738;SDS011;53662;50.114;8.626;2024-02-21T08:41:23;7.80;;;3.72;;
49738;SDS011;53662;50.114;8.626;2024-02-21T08:43:53;13.57;;;4.47;;
49738;SDS011;53662;50.114;8.626;2024-02-21T08:46:19;10.23;;;4.20;;
49738;SDS011;53662;50.114;8.626;2024-02-21T08:48:46;12.35;;;4.13;;
49738;SDS011;53662;50.114;8.626;2024-02-21T08:51:12;16.58;;;4.80;;
49738;SDS011;53662;50.114;8.626;2024-02-21T08:53:38;20.25;;;4.38;;
49738;SDS011;53662;50.114;8.626;2024-02-21T08:56:04;6.72;;;3.90;;
49738;SDS011;53662;50.114;8.626;2024-02-21T08:58:30;10.70;;;3.63;;
49738;SDS011;53662;50.114;8.626;2024-02-21T09:00:56;9.80;;;3.53;;
49738;SDS011;53662;50.114;8.626;2024-02-21T09:03:22;8.90;;;3.88;;
49738;SDS011;53662;50.114;8.626;2024-02-21T09:05:49;14.50;;;3.42;;
49738;SDS011;53662;50.114;8.626;2024-02-21T09:08:15;14.07;;;3.70;;
49738;SDS011;53662;50.114;8.626;2024-02-21T09:10:43;9.07;;;3.50;;
49738;SDS011;53662;50.114;8.626;2024-02-21T09:13:09;11.30;;;3.53;;
49738;SDS011;53662;50.114;8.626;2024-02-21T09:18:51;18.60;;;4.38;;
49738;SDS011;53662;50.114;8.626;2024-02-21T09:21:22;13.65;;;3.50;;
49738;SDS011;53662;50.114;8.626;2024-02-21T09:23:57;10.13;;;3.10;;
49738;SDS011;53662;50.114;8.626;2024-02-21T09:27:13;15.77;;;4.35;;
49738;SDS011;53662;50.114;8.626;2024-02-21T09:29:22;8.50;;;3.40;;
49738;SDS011;53662;50.114;8.626;2024-02-21T09:32:09;8.43;;;3.50;;
49738;SDS011;53662;50.114;8.626;2024-02-21T09:34:37;11.75;;;3.03;;
49738;SDS011;53662;50.114;8.626;2024-02-21T09:37:07;11.98;;;3.63;;
49738;SDS011;53662;50.114;8.626;2024-02-21T09:39:35;7.20;;;3.40;;
49738;SDS011;53662;50.114;8.626;2024-02-21T09:42:03;12.00;;;3.38;;
49738;SDS011;53662;50.114;8.626;2024-02-21T09:44:33;11.80;;;3.67;;
49738;SDS011;53662;50.114;8.626;2024-02-21T09:47:03;5.97;;;3.25;;
49738;SDS011;53662;50.114;8.626;2024-02-21T09:49:30;8.40;;;3.35;;
49738;SDS011;53662;50.114;8.626;2024-02-21T09:52:00;8.70;;;3.45;;
49738;SDS011;53662;50.114;8.626;2024-02-21T09:54:30;13.45;;;4.00;;
49738;SDS011;53662;50.114;8.626;2024-02-21T09:57:02;10.32;;;4.00;;
49738;SDS011;53662;50.114;8.626;2024-02-21T09:59:28;9.77;;;3.47;;
49738;SDS011;53662;50.114;8.626;2024-02-21T10:01:55;7.32;;;2.92;;
49738;SDS011;53662;50.114;8.626;2024-02-21T10:04:21;10.18;;;2.35;;
49738;SDS011;53662;50.114;8.626;2024-02-21T10:06:47;8.30;;;3.65;;
49738;SDS011;53662;50.114;8.626;2024-02-21T10:09:20;9.05;;;3.38;;
49738;SDS011;53662;50.114;8.626;2024-02-21T10:11:47;19.55;;;3.50;;
49738;SDS011;53662;50.114;8.626;2024-02-21T10:14:14;13.32;;;3.03;;
49738;SDS011;53662;50.114;8.626;2024-02-21T10:16:40;9.25;;;3.55;;
49738;SDS011;53662;50.114;8.626;2024-02-21T10:19:15;8.55;;;3.35;;
49738;SDS011;53662;50.114;8.626;2024-02-21T10:21:41;10.60;;;2.55;;
49738;SDS011;53662;50.114;8.626;2024-02-21T10:24:07;7.63;;;2.85;;
49738;SDS011;53662;50.114;8.626;2024-02-21T10:26:35;6.65;;;2.85;;
49738;SDS011;53662;50.114;8.626;2024-02-21T10:29:02;11.40;;;2.88;;
49738;SDS011;53662;50.114;8.626;2024-02-21T10:31:28;13.15;;;2.97;;
49738;SDS011;53662;50.114;8.626;2024-02-21T10:33:55;6.38;;;2.78;;
49738;SDS011;53662;50.114;8.626;2024-02-21T10:36:21;9.30;;;3.28;;
49738;SDS011;53662;50.114;8.626;2024-02-21T10:38:47;8.80;;;2.92;;
49738;SDS011;53662;50.114;8.626;2024-02-21T10:41:14;9.98;;;2.80;;
49738;SDS011;53662;50.114;8.626;2024-02-21T10:43:43;8.80;;;2.88;;
49738;SDS011;53662;50.114;8.626;2024-02-21T10:46:11;7.75;;;2.75;;
49738;SDS011;53662;50.114;8.626;2024-02-21T10:48:43;11.95;;;3.17;;
49738;SDS011;53662;50.114;8.626;2024-02-21T10:53:41;9.80;;;3.00;;
49738;SDS011;53662;50.114;8.626;2024-02-21T10:56:30;7.00;;;3.22;;
49738;SDS011;53662;50.114;8.626;2024-02-21T10:59:07;13.68;;;5.95;;
49738;SDS011;53662;50.114;8.626;2024-02-21T11:01:33;8.98;;;3.28;;
49738;SDS011;53662;50.114;8.626;2024-02-21T11:04:03;3.88;;;2.30;;
49738;SDS011;53662;50.114;8.626;2024-02-21T11:06:30;6.88;;;3.28;;
49738;SDS011;53662;50.114;8.626;2024-02-21T11:09:14;7.90;;;3.90;;
49738;SDS011;53662;50.114;8.626;2024-02-21T11:11:41;15.55;;;3.60;;
49738;SDS011;53662;50.114;8.626;2024-02-21T11:14:17;8.35;;;3.22;;
49738;SDS011;53662;50.114;8.626;2024-02-21T11:16:43;10.18;;;3.15;;
49738;SDS011;53662;50.114;8.626;2024-02-21T11:19:30;12.88;;;4.25;;
49738;SDS011;53662;50.114;8.626;2024-02-21T11:21:56;10.88;;;3.63;;
49738;SDS011;53662;50.114;8.626;2024-02-21T11:24:27;11.70;;;3.78;;
49738;SDS011;53662;50.114;8.626;2024-02-21T11:26:56;9.32;;;3.50;;
49738;SDS011;53662;50.114;8.626;2024-02-21T11:29:23;13.80;;;4.20;;
49738;SDS011;53662;50.114;8.626;2024-02-21T11:31:53;7.72;;;3.05;;
49738;SDS011;53662;50.114;8.626;2024-02-21T11:34:19;11.00;;;3.60;;
49738;SDS011;53662;50.114;8.626;2024-02-21T11:36:49;8.85;;;3.45;;
49738;SDS011;53662;50.114;8.626;2024-02-21T11:39:19;8.85;;;3.45;;
49738;SDS011;53662;50.114;8.626;2024-02-21T11:41:47;10.25;;;2.45;;
49738;SDS011;53662;50.114;8.626;2024-02-21T11:44:13;21.20;;;4.38;;
49738;SDS011;53662;50.114;8.626;2024-02-21T11:46:39;12.02;;;3.17;;
49738;SDS011;53662;50.114;8.626;2024-02-21T11:49:05;10.98;;;2.97;;
49738;SDS011;53662;50.114;8.626;2024-02-21T11:51:31;13.90;;;3.97;;
49738;SDS011;53662;50.114;8.626;2024-02-21T11:53:57;11.50;;;3.78;;
49738;SDS011;53662;50.114;8.626;2024-02-21T11:56:23;9.05;;;3.30;;
49738;SDS011;53662;50.114;8.626;2024-02-21T11:58:50;10.20;;;3.50;;
49738;SDS011;53662;50.114;8.626;2024-02-21T12:01:16;18.50;;;4.13;;
49738;SDS011;53662;50.114;8.626;2024-02-21T12:03:42;15.10;;;3.83;;
49738;SDS011;53662;50.114;8.626;2024-02-21T12:06:14;12.07;;;3.90;;
49738;SDS011;53662;50.114;8.626;2024-02-21T12:08:44;9.45;;;3.42;;
49738;SDS011;53662;50.114;8.626;2024-02-21T12:11:25;11.15;;;3.63;;
49738;SDS011;53662;50.114;8.626;2024-02-21T12:14:01;14.45;;;4.20;;
49738;SDS011;53662;50.114;8.626;2024-02-21T12:16:28;12.20;;;3.80;;
49738;SDS011;53662;50.114;8.626;2024-02-21T12:18:55;18.85;;;3.47;;
49738;SDS011;53662;50.114;8.626;2024-02-21T12:21:30;10.27;;;3.58;;
49738;SDS011;53662;50.114;8.626;2024-02-21T12:23:57;9.50;;;3.28;;
49738;SDS011;53662;50.114;8.626;2024-02-21T12:26:23;15.13;;;3.60;;
49738;SDS011;53662;50.114;8.626;2024-02-21T12:28:49;14.52;;;3.35;;
49738;SDS011;53662;50.114;8.626;2024-02-21T12:31:15;12.27;;;3.40;;
49738;SDS011;53662;50.114;8.626;2024-02-21T12:33:42;8.35;;;3.22;;
49738;SDS011;53662;50.114;8.626;2024-02-21T12:36:08;10.27;;;3.58;;
49738;SDS011;53662;50.114;8.626;2024-02-21T12:38:34;8.70;;;3.20;;
49738;SDS011;53662;50.114;8.626;2024-02-21T12:41:00;21.63;;;4.18;;
49738;SDS011;53662;50.114;8.626;2024-02-21T12:43:26;8.48;;;3.38;;
49738;SDS011;53662;50.114;8.626;2024-02-21T12:45:52;13.75;;;3.85;;
49738;SDS011;53662;50.114;8.626;2024-02-21T12:48:18;15.70;;;4.40;;
49738;SDS011;53662;50.114;8.626;2024-02-21T12:50:48;8.98;;;3.10;;
49738;SDS011;53662;50.114;8.626;2024-02-21T12:53:15;13.27;;;3.40;;
49738;SDS011;53662;50.114;8.626;2024-02-21T12:55:41;7.80;;;2.70;;
49738;SDS011;53662;50.114;8.626;2024-02-21T12:58:07;8.13;;;3.08;;
49738;SDS011;53662;50.114;8.626;2024-02-21T13:00:34;17.45;;;3.92;;
49738;SDS011;53662;50.114;8.626;2024-02-21T13:03:00;15.38;;;3.90;;
49738;SDS011;53662;50.114;8.626;2024-02-21T13:05:27;16.27;;;4.82;;
49738;SDS011;53662;50.114;8.626;2024-02-21T13:07:53;8.80;;;3.97;;
49738;SDS011;53662;50.114;8.626;2024-02-21T13:10:19;16.15;;;3.53;;
49738;SDS011;53662;50.114;8.626;2024-02-21T13:12:46;15.70;;;3.60;;
49738;SDS011;53662;50.114;8.626;2024-02-21T13:15:12;20.20;;;3.72;;
49738;SDS011;53662;50.114;8.626;2024-02-21T13:17:38;14.68;;;3.42;;
49738;SDS011;53662;50.114;8.626;2024-02-21T13:20:04;8.70;;;2.70;;
49738;SDS011;53662;50.114;8.626;2024-02-21T13:22:30;8.13;;;2.78;;
49738;SDS011;53662;50.114;8.626;2024-02-21T13:24:56;11.50;;;3.33;;
49738;SDS011;53662;50.114;8.626;2024-02-21T13:27:22;10.65;;;3.05;;
49738;SDS011;53662;50.114;8.626;2024-02-21T13:29:48;7.38;;;2.90;;
49738;SDS011;53662;50.114;8.626;2024-02-21T13:32:14;10.77;;;3.00;;
49738;SDS011;53662;50.114;8.626;2024-02-21T13:34:40;10.98;;;3.22;;
49738;SDS011;53662;50.114;8.626;2024-02-21T13:37:07;8.60;;;2.95;;
49738;SDS011;53662;50.114;8.626;2024-02-21T13:39:34;6.78;;;2.58;;
49738;SDS011;53662;50.114;8.626;2024-02-21T13:42:00;7.45;;;3.33;;
49738;SDS011;53662;50.114;8.626;2024-02-21T13:44:27;8.52;;;2.72;;
49738;SDS011;53662;50.114;8.626;2024-02-21T13:46:53;7.03;;;3.42;;
49738;SDS011;53662;50.114;8.626;2024-02-21T13:49:19;12.20;;;2.60;;
49738;SDS011;53662;50.114;8.626;2024-02-21T13:51:45;9.13;;;2.60;;
49738;SDS011;53662;50.114;8.626;2024-02-21T13:54:11;9.52;;;3.10;;
49738;SDS011;53662;50.114;8.626;2024-02-21T13:56:39;7.72;;;2.88;;
49738;SDS011;53662;50.114;8.626;2024-02-21T13:59:05;10.88;;;2.75;;
49738;SDS011;53662;50.114;8.626;2024-02-21T14:01:31;9.90;;;2.90;;
49738;SDS011;53662;50.114;8.626;2024-02-21T14:03:57;8.95;;;2.70;;
49738;SDS011;53662;50.114;8.626;2024-02-21T14:06:23;8.30;;;2.75;;
49738;SDS011;53662;50.114;8.626;2024-02-21T14:08:49;9.50;;;2.95;;
49738;SDS011;53662;50.114;8.626;2024-02-21T14:11:15;6.68;;;1.98;;
49738;SDS011;53662;50.114;8.626;2024-02-21T14:13:42;9.07;;;2.58;;
49738;SDS011;53662;50.114;8.626;2024-02-21T14:16:11;10.50;;;2.75;;
49738;SDS011;53662;50.114;8.626;2024-02-21T14:18:38;11.63;;;2.58;;
49738;SDS011;53662;50.114;8.626;2024-02-21T14:21:05;7.35;;;2.42;;
49738;SDS011;53662;50.114;8.626;2024-02-21T14:23:31;7.40;;;2.72;;
49738;SDS011;53662;50.114;8.626;2024-02-21T14:25:58;11.45;;;2.35;;
49738;SDS011;53662;50.114;8.626;2024-02-21T14:28:24;8.85;;;2.78;;
49738;SDS011;53662;50.114;8.626;2024-02-21T14:30:50;14.40;;;3.15;;
49738;SDS011;53662;50.114;8.626;2024-02-21T14:33:18;10.93;;;1.83;;
49738;SDS011;53662;50.114;8.626;2024-02-21T14:35:44;8.27;;;2.50;;
49738;SDS011;53662;50.114;8.626;2024-02-21T14:38:10;7.85;;;2.78;;
49738;SDS011;53662;50.114;8.626;2024-02-21T14:40:36;6.57;;;2.13;;
49738;SDS011;53662;50.114;8.626;2024-02-21T14:43:02;16.02;;;2.70;;